createdAt,value
2018-07-05T00:00:50.990Z,22.70
2018-07-05T00:03:37.129Z,22.60
2018-07-05T00:06:23.124Z,22.50
2018-07-05T00:09:09.731Z,22.40
2018-07-05T00:11:55.931Z,22.40
2018-07-05T00:14:41.998Z,22.40
2018-07-05T00:17:28.042Z,22.30
2018-07-05T00:20:13.990Z,22.30
2018-07-05T00:23:00.161Z,22.30
2018-07-05T00:25:46.319Z,22.30
2018-07-05T00:28:32.489Z,22.30
2018-07-05T00:31:18.902Z,22.30
2018-07-05T00:34:04.917Z,22.30
2018-07-05T00:36:51.094Z,22.30
2018-07-05T00:39:37.369Z,22.30
2018-07-05T00:42:23.512Z,22.20
2018-07-05T00:45:09.642Z,22.20
2018-07-05T00:47:55.775Z,22.20
2018-07-05T00:50:42.286Z,22.20
2018-07-05T00:53:28.456Z,22.20
2018-07-05T00:56:14.533Z,22.20
2018-07-05T00:59:00.719Z,22.20
2018-07-05T01:01:47.005Z,22.10
2018-07-05T01:04:33.755Z,22.10
2018-07-05T01:07:19.630Z,22.10
2018-07-05T01:10:05.841Z,22.20
2018-07-05T01:12:52.001Z,22.20
2018-07-05T01:15:38.164Z,22.30
2018-07-05T01:18:24.542Z,22.30
2018-07-05T01:21:10.632Z,22.30
2018-07-05T01:23:57.123Z,22.30
2018-07-05T01:26:43.306Z,22.30
2018-07-05T01:29:29.627Z,22.30
2018-07-05T01:32:15.626Z,22.30
2018-07-05T01:35:02.891Z,22.30
2018-07-05T01:37:48.865Z,22.30
2018-07-05T01:40:34.971Z,22.30
2018-07-05T01:43:21.156Z,22.20
2018-07-05T01:46:07.245Z,22.10
2018-07-05T01:48:53.464Z,22.00
2018-07-05T01:51:39.643Z,21.90
2018-07-05T01:54:25.837Z,21.80
2018-07-05T01:57:12.018Z,21.80
2018-07-05T01:59:58.251Z,21.70
2018-07-05T02:02:44.435Z,21.70
2018-07-05T02:05:30.627Z,21.60
2018-07-05T02:08:16.842Z,21.60
2018-07-05T02:11:03.040Z,21.60
2018-07-05T03:45:04.955Z,21.60
2018-07-05T03:47:50.971Z,18.80
2018-07-05T03:50:37.055Z,18.70
2018-07-05T03:53:23.192Z,18.70
2018-07-05T03:56:09.272Z,18.70
2018-07-05T03:58:55.291Z,18.70
2018-07-05T04:01:41.732Z,18.80
2018-07-05T04:04:22.303Z,18.80
2018-07-05T04:07:08.355Z,18.80
2018-07-05T04:12:34.589Z,18.70
2018-07-05T04:15:20.808Z,18.70
2018-07-05T04:18:07.256Z,18.70
2018-07-05T04:20:53.498Z,18.70
2018-07-05T04:23:39.788Z,18.70
2018-07-05T04:26:25.944Z,18.80
2018-07-05T04:29:12.010Z,18.80
2018-07-05T04:31:58.391Z,18.80
2018-07-05T04:34:44.819Z,18.80
2018-07-05T04:37:31.083Z,18.80
2018-07-05T04:40:17.075Z,18.90
2018-07-05T04:43:03.224Z,19.00
2018-07-05T04:45:49.558Z,19.00
2018-07-05T04:48:35.709Z,19.00
2018-07-05T04:51:21.954Z,19.10
2018-07-05T04:54:07.946Z,19.10
2018-07-05T04:56:54.054Z,19.20
2018-07-05T04:59:48.196Z,19.30
2018-07-05T05:02:34.521Z,19.40
2018-07-05T05:05:21.065Z,19.50
2018-07-05T05:08:07.303Z,19.50
2018-07-05T05:10:53.381Z,19.60
2018-07-05T05:13:39.339Z,19.70
2018-07-05T05:16:25.545Z,19.70
2018-07-05T05:19:11.787Z,19.70
2018-07-05T05:24:37.885Z,19.80
2018-07-05T05:27:24.082Z,19.70
2018-07-05T05:30:10.155Z,19.80
2018-07-05T05:32:56.257Z,19.80
2018-07-05T05:35:42.531Z,19.90
2018-07-05T05:38:28.873Z,19.90
2018-07-05T05:41:15.121Z,19.90
2018-07-05T05:44:01.378Z,19.90
2018-07-05T05:46:47.385Z,19.80
2018-07-05T05:49:33.600Z,19.90
2018-07-05T05:52:20.624Z,19.90
2018-07-05T05:55:06.761Z,19.90
2018-07-05T05:57:52.906Z,20.00
2018-07-05T06:00:39.151Z,20.10
2018-07-05T06:03:25.511Z,20.10
2018-07-05T06:06:11.745Z,20.30
2018-07-05T06:08:57.908Z,20.40
2018-07-05T06:11:44.061Z,20.60
2018-07-05T06:14:30.241Z,20.80
2018-07-05T06:17:16.400Z,20.90
2018-07-05T06:20:02.577Z,21.00
2018-07-05T06:22:48.751Z,21.10
2018-07-05T06:25:35.944Z,21.10
2018-07-05T06:28:22.235Z,21.00
2018-07-05T06:31:08.472Z,21.10
2018-07-05T06:33:54.690Z,21.10
2018-07-05T06:36:40.784Z,21.10
2018-07-05T06:39:27.146Z,21.10
2018-07-05T06:42:13.371Z,21.10
2018-07-05T06:44:59.471Z,21.10
2018-07-05T06:47:45.603Z,20.90
2018-07-05T06:50:31.837Z,20.70
2018-07-05T06:53:18.144Z,20.60
2018-07-05T06:56:04.407Z,20.60
2018-07-05T06:58:50.768Z,20.40
2018-07-05T07:01:36.704Z,20.50
2018-07-05T07:04:22.782Z,20.40
2018-07-05T07:07:09.049Z,20.30
2018-07-05T07:09:55.342Z,20.50
2018-07-05T07:12:41.453Z,20.50
2018-07-05T07:15:27.545Z,20.50
2018-07-05T07:18:13.826Z,20.60
2018-07-05T07:21:00.044Z,20.60
2018-07-05T07:23:46.074Z,20.70
2018-07-05T07:26:32.192Z,20.80
2018-07-05T07:29:18.317Z,20.90
2018-07-05T07:32:04.434Z,21.00
2018-07-05T07:34:50.704Z,21.10
2018-07-05T07:37:37.040Z,21.10
2018-07-05T07:40:23.671Z,21.10
2018-07-05T07:42:57.255Z,21.20
2018-07-05T07:45:30.999Z,21.30
2018-07-05T07:48:04.624Z,21.20
2018-07-05T07:50:38.901Z,21.20
2018-07-05T07:53:12.763Z,21.20
2018-07-05T07:55:46.619Z,21.20
2018-07-05T07:58:20.431Z,21.20
2018-07-05T08:00:54.134Z,21.20
2018-07-05T08:03:27.892Z,21.20
2018-07-05T08:06:01.779Z,21.30
2018-07-05T08:08:35.391Z,21.40
2018-07-05T08:11:09.057Z,21.30
2018-07-05T08:13:42.771Z,21.30
2018-07-05T08:16:16.359Z,21.40
2018-07-05T08:18:50.107Z,21.60
2018-07-05T08:21:23.756Z,21.60
2018-07-05T08:23:57.484Z,21.70
2018-07-05T08:26:31.199Z,21.80
2018-07-05T08:29:04.769Z,21.90
2018-07-05T08:31:38.707Z,21.90
2018-07-05T08:34:12.606Z,22.10
2018-07-05T08:36:46.185Z,22.30
2018-07-05T08:39:20.219Z,22.50
2018-07-05T08:41:53.903Z,22.60
2018-07-05T08:44:27.577Z,22.60
2018-07-05T08:47:01.241Z,22.70
2018-07-05T08:49:34.855Z,22.80
2018-07-05T08:52:08.611Z,22.90
2018-07-05T08:54:43.092Z,23.10
2018-07-05T08:57:17.035Z,23.10
2018-07-05T08:59:50.687Z,23.00
2018-07-05T09:02:24.463Z,23.20
2018-07-05T09:04:58.172Z,23.40
2018-07-05T09:07:31.749Z,23.60
2018-07-05T09:10:05.642Z,23.60
2018-07-05T09:12:39.326Z,23.60
2018-07-05T09:15:13.067Z,23.70
2018-07-05T09:17:46.850Z,23.80
2018-07-05T09:20:20.548Z,23.90
2018-07-05T09:22:54.458Z,24.00
2018-07-05T09:25:28.299Z,24.10
2018-07-05T09:28:01.977Z,24.20
2018-07-05T09:30:35.687Z,24.30
2018-07-05T09:33:09.391Z,24.40
2018-07-05T09:35:43.257Z,24.50
2018-07-05T09:38:16.876Z,24.80
2018-07-05T09:40:50.716Z,25.10
2018-07-05T09:43:24.586Z,25.30
2018-07-05T09:46:02.224Z,25.50
2018-07-05T09:48:35.931Z,25.80
2018-07-05T09:51:09.776Z,25.80
2018-07-05T09:53:44.234Z,26.00
2018-07-05T09:56:18.509Z,26.00
2018-07-05T09:58:56.676Z,26.00
2018-07-05T10:01:30.555Z,26.00
2018-07-05T10:04:04.272Z,25.90
2018-07-05T10:06:38.338Z,25.80
2018-07-05T10:09:12.251Z,25.90
2018-07-05T10:11:46.030Z,26.00
2018-07-05T10:14:19.864Z,26.10
2018-07-05T10:16:54.421Z,26.20
2018-07-05T10:19:31.867Z,26.30
2018-07-05T10:22:07.616Z,26.20
2018-07-05T10:24:41.971Z,26.20
2018-07-05T10:27:15.750Z,26.10
2018-07-05T10:30:02.595Z,26.10
2018-07-05T10:32:55.522Z,26.10
2018-07-05T10:35:30.282Z,26.00
2018-07-05T10:38:05.447Z,26.10
2018-07-05T10:40:52.040Z,26.20
2018-07-05T10:43:38.389Z,26.40
2018-07-05T10:46:26.556Z,26.50
2018-07-05T10:49:13.014Z,26.60
2018-07-05T10:51:59.204Z,26.60
2018-07-05T10:54:45.940Z,26.90
2018-07-05T10:57:32.739Z,27.10
2018-07-05T11:00:18.846Z,27.40
2018-07-05T11:03:05.316Z,27.60
2018-07-05T11:05:53.584Z,27.90
2018-07-05T11:08:41.613Z,28.00
2018-07-05T11:11:27.783Z,28.20
2018-07-05T11:16:54.778Z,28.50
2018-07-05T11:19:41.198Z,28.50
2018-07-05T11:22:27.472Z,28.50
2018-07-05T11:25:13.835Z,28.40
2018-07-05T11:27:59.974Z,28.30
2018-07-05T11:30:46.140Z,28.00
2018-07-05T11:33:32.338Z,28.00
2018-07-05T11:36:18.401Z,28.00
2018-07-05T11:39:05.755Z,28.00
2018-07-05T11:41:51.961Z,27.90
2018-07-05T11:44:38.272Z,27.80
2018-07-05T11:47:24.682Z,27.80
2018-07-05T11:50:10.979Z,27.90
2018-07-05T11:52:57.172Z,27.80
2018-07-05T11:55:43.126Z,27.60
2018-07-05T11:58:29.292Z,27.60
2018-07-05T12:01:15.383Z,27.80
2018-07-05T12:04:01.514Z,27.80
2018-07-05T12:06:47.917Z,27.80
2018-07-05T12:09:33.836Z,27.90
2018-07-05T12:12:20.031Z,28.00
2018-07-05T12:15:06.214Z,28.30
2018-07-05T12:20:26.672Z,28.30
2018-07-05T12:23:13.010Z,28.20
2018-07-05T12:25:59.192Z,28.40
2018-07-05T12:28:45.532Z,28.50
2018-07-05T12:31:31.770Z,28.50
2018-07-05T12:34:17.951Z,28.60
2018-07-05T12:37:04.203Z,28.40
2018-07-05T12:39:51.076Z,28.40
2018-07-05T12:42:37.250Z,28.40
2018-07-05T12:45:23.334Z,28.30
2018-07-05T12:48:09.572Z,28.10
2018-07-05T12:50:55.733Z,28.10
2018-07-05T12:53:41.902Z,28.00
2018-07-05T12:56:28.074Z,28.00
2018-07-05T12:59:14.349Z,28.10
2018-07-05T13:02:00.418Z,28.30
2018-07-05T13:04:46.619Z,28.40
2018-07-05T13:07:32.731Z,28.60
2018-07-05T13:10:19.007Z,28.90
2018-07-05T13:13:05.163Z,28.80
2018-07-05T13:15:51.177Z,28.90
2018-07-05T13:18:37.429Z,29.10
2018-07-05T13:21:23.411Z,29.30
2018-07-05T13:24:03.815Z,29.40
2018-07-05T13:26:49.890Z,29.20
2018-07-05T13:29:36.044Z,28.90
2018-07-05T13:35:02.237Z,28.80
2018-07-05T13:37:48.547Z,28.80
2018-07-05T13:40:34.604Z,28.90
2018-07-05T13:43:20.629Z,28.80
2018-07-05T13:46:06.938Z,28.80
2018-07-05T13:48:53.220Z,28.60
2018-07-05T13:51:39.392Z,28.40
2018-07-05T13:54:25.456Z,28.30
2018-07-05T13:57:11.706Z,28.50
2018-07-05T13:59:58.018Z,28.90
2018-07-05T14:02:44.091Z,29.30
2018-07-05T14:05:30.214Z,29.40
2018-07-05T14:08:16.371Z,29.20
2018-07-05T14:11:02.586Z,28.90
2018-07-05T14:13:48.522Z,28.70
2018-07-05T14:16:29.431Z,28.60
2018-07-05T14:19:15.564Z,28.70
2018-07-05T14:22:01.768Z,28.70
2018-07-05T14:24:48.053Z,28.70
2018-07-05T14:27:34.537Z,28.70
2018-07-05T14:30:20.880Z,28.40
2018-07-05T14:35:47.004Z,28.50
2018-07-05T14:38:33.234Z,28.70
2018-07-05T14:41:19.115Z,28.90
2018-07-05T14:44:05.228Z,29.30
2018-07-05T14:46:51.550Z,29.50
2018-07-05T14:49:37.649Z,29.60
2018-07-05T14:52:23.811Z,29.60
2018-07-05T14:55:10.273Z,29.60
2018-07-05T15:00:37.610Z,29.50
2018-07-05T15:03:24.124Z,29.40
2018-07-05T15:06:10.158Z,29.30
2018-07-05T15:08:55.212Z,29.20
2018-07-05T15:11:41.352Z,29.10
2018-07-05T15:14:27.889Z,29.00
2018-07-05T15:17:13.914Z,29.00
2018-07-05T15:20:00.289Z,29.20
2018-07-05T15:22:46.661Z,29.30
2018-07-05T15:25:32.983Z,29.20
2018-07-05T15:28:19.160Z,29.30
2018-07-05T15:31:05.078Z,29.40
2018-07-05T15:33:51.467Z,29.40
2018-07-05T15:36:32.162Z,29.60
2018-07-05T15:39:12.657Z,29.60
2018-07-05T15:41:58.810Z,29.70
2018-07-05T15:44:45.027Z,29.70
2018-07-05T15:47:31.277Z,29.50
2018-07-05T15:50:17.471Z,29.50
2018-07-05T15:53:03.682Z,29.80
2018-07-05T15:55:50.266Z,30.30
2018-07-05T15:58:37.134Z,30.60
2018-07-05T16:01:23.943Z,30.80
2018-07-05T16:04:10.949Z,30.90
2018-07-05T16:06:57.681Z,31.00
2018-07-05T16:12:24.816Z,30.90
2018-07-05T16:15:10.959Z,30.60
2018-07-05T16:17:57.624Z,30.00
2018-07-05T16:20:43.712Z,29.50
2018-07-05T16:23:30.824Z,29.20
2018-07-05T16:26:17.008Z,29.10
2018-07-05T16:31:37.860Z,28.90
2018-07-05T16:34:24.282Z,28.70
2018-07-05T16:37:10.469Z,28.70
2018-07-05T16:39:56.999Z,28.60
2018-07-05T16:42:43.052Z,28.40
2018-07-05T16:45:29.392Z,28.30
2018-07-05T16:48:15.608Z,28.20
2018-07-05T16:53:41.985Z,28.50
2018-07-05T16:56:28.003Z,28.70
2018-07-05T16:59:14.038Z,28.70
2018-07-05T17:02:00.384Z,28.70
2018-07-05T17:04:46.363Z,28.60
2018-07-05T17:07:32.616Z,28.70
2018-07-05T17:10:18.743Z,28.90
2018-07-05T17:13:05.002Z,28.90
2018-07-05T17:15:51.390Z,28.80
2018-07-05T17:18:37.648Z,28.80
2018-07-05T17:21:24.278Z,28.60
2018-07-05T17:24:10.219Z,28.50
2018-07-05T17:26:56.431Z,28.60
2018-07-05T17:29:42.659Z,28.60
2018-07-05T17:32:28.607Z,28.60
2018-07-05T17:35:14.884Z,28.70
2018-07-05T17:38:01.052Z,28.60
2018-07-05T17:40:47.298Z,28.50
2018-07-05T17:43:33.660Z,28.40
2018-07-05T17:46:19.750Z,28.40
2018-07-05T17:49:06.019Z,28.40
2018-07-05T17:51:52.147Z,28.40
2018-07-05T17:54:38.574Z,28.40
2018-07-05T17:57:24.632Z,28.40
2018-07-05T18:00:10.685Z,28.30
2018-07-05T18:05:37.105Z,28.10
2018-07-05T18:08:23.431Z,28.20
2018-07-05T18:11:09.331Z,28.20
2018-07-05T18:13:55.678Z,28.30
2018-07-05T18:16:41.831Z,28.20
2018-07-05T18:19:27.847Z,28.20
2018-07-05T18:22:14.078Z,28.00
2018-07-05T18:24:54.928Z,28.00
2018-07-05T18:27:35.409Z,27.90
2018-07-05T18:30:15.981Z,27.90
2018-07-05T18:32:56.629Z,27.80
2018-07-05T18:35:37.345Z,27.70
2018-07-05T18:38:17.893Z,27.50
2018-07-05T18:40:58.551Z,27.40
2018-07-05T18:43:38.993Z,27.40
2018-07-05T18:46:19.463Z,27.30
2018-07-05T18:49:00.104Z,27.10
2018-07-05T18:51:46.304Z,27.00
2018-07-05T18:57:12.602Z,26.70
2018-07-05T18:59:58.762Z,26.60
2018-07-05T19:02:45.062Z,26.50
2018-07-05T19:05:31.100Z,26.50
2018-07-05T19:10:57.616Z,26.40
2018-07-05T19:13:43.967Z,26.40
2018-07-05T19:16:30.371Z,26.30
2018-07-05T19:19:16.639Z,26.30
2018-07-05T19:22:03.120Z,26.30
2018-07-05T19:24:51.029Z,26.10
2018-07-05T19:27:37.818Z,26.00
2018-07-05T19:30:23.847Z,25.90
2018-07-05T19:33:10.224Z,25.80
2018-07-05T19:36:00.620Z,25.80
2018-07-05T19:38:49.999Z,25.70
2018-07-05T19:41:37.603Z,25.60
2018-07-05T19:44:25.418Z,25.40
2018-07-05T19:47:11.466Z,25.30
2018-07-05T19:50:00.063Z,25.10
2018-07-05T19:52:46.252Z,24.80
2018-07-05T19:55:33.130Z,24.70
2018-07-05T19:58:19.382Z,24.60
2018-07-05T20:01:05.521Z,24.50
2018-07-05T20:03:51.676Z,24.40
2018-07-05T20:06:37.904Z,24.30
2018-07-05T20:09:24.847Z,24.20
2018-07-05T20:12:11.114Z,24.00
2018-07-05T20:14:57.426Z,24.00
2018-07-05T20:17:44.443Z,23.90
2018-07-05T20:20:30.558Z,23.90
2018-07-05T20:23:11.160Z,23.90
2018-07-05T20:25:57.729Z,23.80
2018-07-05T20:28:44.041Z,23.70
2018-07-05T20:31:30.272Z,23.60
2018-07-05T20:34:16.868Z,23.50
2018-07-05T20:37:03.022Z,23.30
2018-07-05T20:39:49.421Z,23.30
2018-07-05T20:45:16.064Z,23.30
2018-07-05T20:48:02.549Z,23.20
2018-07-05T20:50:51.242Z,23.10
2018-07-05T20:53:37.745Z,22.90
2018-07-05T20:56:24.190Z,22.80
2018-07-05T20:59:10.481Z,22.90
2018-07-05T21:01:58.325Z,22.90
2018-07-05T21:04:44.693Z,22.70
2018-07-05T21:07:31.145Z,22.70
2018-07-05T21:10:19.367Z,22.60
2018-07-05T21:13:05.387Z,22.50
2018-07-05T21:15:57.622Z,22.50
2018-07-05T21:18:38.611Z,22.40
2018-07-05T21:21:28.102Z,22.30
2018-07-05T21:24:16.952Z,22.20
2018-07-05T21:27:03.103Z,22.10
2018-07-05T21:29:50.786Z,22.00
2018-07-05T21:32:37.074Z,21.90
2018-07-05T21:35:26.389Z,21.90
2018-07-05T21:38:13.207Z,21.90
2018-07-05T21:41:01.675Z,21.90
2018-07-05T21:43:48.177Z,21.80
2018-07-05T21:46:34.464Z,21.80
2018-07-05T21:49:25.161Z,21.70
2018-07-05T21:52:15.356Z,21.70
2018-07-05T21:55:03.151Z,21.60
2018-07-05T21:57:51.052Z,21.60
2018-07-05T22:00:37.224Z,21.50
2018-07-05T22:03:23.583Z,21.50
2018-07-05T22:06:09.865Z,21.40
2018-07-05T22:08:56.320Z,21.30
2018-07-05T22:14:22.942Z,21.20
2018-07-05T22:17:14.370Z,21.20
2018-07-05T22:20:06.052Z,21.00
2018-07-05T22:22:57.552Z,21.00
2018-07-05T22:25:49.174Z,21.00
2018-07-05T22:29:43.527Z,20.90
2018-07-05T22:32:29.935Z,20.90
2018-07-05T22:35:16.594Z,21.00
2018-07-05T22:38:03.036Z,20.90
2018-07-05T22:40:49.389Z,20.80
2018-07-05T22:43:36.303Z,20.70
2018-07-05T22:46:22.523Z,20.60
2018-07-05T22:49:08.542Z,20.70
2018-07-05T22:51:54.802Z,20.60
2018-07-05T22:54:41.038Z,20.50
2018-07-05T22:57:27.122Z,20.50
2018-07-05T23:00:13.234Z,20.40
2018-07-05T23:03:00.027Z,20.30
2018-07-05T23:05:46.480Z,20.20
2018-07-05T23:08:32.977Z,20.20
2018-07-05T23:11:19.339Z,20.20
2018-07-05T23:14:05.466Z,20.00
2018-07-05T23:16:51.537Z,19.90
2018-07-05T23:19:37.719Z,19.90
2018-07-05T23:22:24.098Z,19.90
2018-07-05T23:25:10.306Z,19.80
2018-07-05T23:27:56.408Z,19.80
2018-07-05T23:30:42.493Z,19.80
2018-07-05T23:33:28.774Z,19.70
2018-07-05T23:39:13.079Z,19.70
2018-07-05T23:41:59.081Z,19.70
2018-07-05T23:47:25.274Z,19.70
2018-07-05T23:50:11.760Z,19.80
2018-07-05T23:52:58.117Z,19.80
2018-07-05T23:55:44.352Z,19.70
2018-07-05T23:58:30.734Z,19.80
